Time;durP1;ratioP1;P1;durP2;ratioP2;P2;SDS_P1;SDS_P2;PMS_P1;PMS_P2;Temp;Humidity;BMP_temperature;BMP_pressure;BME280_temperature;BME280_humidity;BME280_pressure;Samples;Min_cycle;Max_cycle;Signal;HPM_P1;HPM_P2
2021/08/28 00:01:51;;;;;;;5.00;4.60;;;16.80;99.90;;;;;;5022979;28;20177;-83
2021/08/28 00:04:16;;;;;;;5.90;5.37;;;16.80;99.90;;;;;;5020417;28;20185;-85
2021/08/28 00:06:44;;;;;;;5.80;5.30;;;16.80;99.90;;;;;;5014656;28;20347;-85
2021/08/28 00:09:12;;;;;;;6.20;5.70;;;16.80;99.90;;;;;;5018171;28;20193;-81
2021/08/28 00:11:40;;;;;;;6.07;5.57;;;16.80;99.90;;;;;;5015003;28;20733;-85
2021/08/28 00:14:06;;;;;;;6.90;6.27;;;16.70;99.90;;;;;;5013317;28;20742;-84
2021/08/28 00:16:34;;;;;;;5.47;4.97;;;16.70;99.90;;;;;;4998449;28;20701;-83
2021/08/28 00:18:59;;;;;;;5.90;5.40;;;16.70;99.90;;;;;;4995127;28;20616;-84
2021/08/28 00:21:25;;;;;;;6.03;5.53;;;16.70;99.90;;;;;;5003598;28;20657;-84
2021/08/28 00:23:50;;;;;;;5.97;5.20;;;16.70;99.90;;;;;;5025098;28;20192;-83
2021/08/28 00:26:16;;;;;;;6.37;5.77;;;16.60;99.90;;;;;;5008247;28;20728;-85
2021/08/28 00:28:42;;;;;;;6.40;5.77;;;16.60;99.90;;;;;;5004299;28;20185;-87
2021/08/28 00:31:07;;;;;;;6.07;5.53;;;16.60;99.90;;;;;;5020505;28;20213;-85
2021/08/28 00:33:33;;;;;;;6.10;5.60;;;16.60;99.90;;;;;;5027136;28;20690;-85
2021/08/28 00:35:58;;;;;;;6.20;5.70;;;16.60;99.90;;;;;;5023341;28;20213;-83
2021/08/28 00:38:24;;;;;;;5.80;5.40;;;16.60;99.90;;;;;;5006515;28;20203;-85
2021/08/28 00:40:52;;;;;;;6.50;5.90;;;16.60;99.90;;;;;;5024808;28;21060;-84
2021/08/28 00:43:18;;;;;;;6.20;5.70;;;16.60;99.90;;;;;;5021535;28;20223;-84
2021/08/28 00:45:44;;;;;;;7.10;6.10;;;16.60;99.90;;;;;;5005529;28;20647;-84
2021/08/28 00:48:13;;;;;;;6.43;5.93;;;16.70;99.90;;;;;;5022963;28;20193;-84
2021/08/28 00:50:43;;;;;;;6.13;5.63;;;16.70;99.90;;;;;;5021715;28;20754;-84
2021/08/28 00:53:14;;;;;;;6.87;6.13;;;16.70;99.90;;;;;;5026706;28;20611;-84
2021/08/28 00:55:44;;;;;;;6.00;5.37;;;16.60;99.90;;;;;;5007241;28;20701;-84
2021/08/28 00:58:10;;;;;;;6.00;5.50;;;16.60;99.90;;;;;;5006440;28;20616;-85
2021/08/28 01:00:47;;;;;;;5.17;4.77;;;16.70;99.90;;;;;;5004388;28;20666;-85
2021/08/28 01:03:21;;;;;;;6.63;6.13;;;16.70;99.90;;;;;;5024210;28;20698;-83
2021/08/28 01:06:04;;;;;;;6.00;5.50;;;16.70;99.90;;;;;;5002960;28;20675;-82
2021/08/28 01:08:39;;;;;;;5.17;4.77;;;16.70;99.90;;;;;;5026199;28;20619;-83
2021/08/28 01:11:35;;;;;;;5.60;5.17;;;16.70;99.90;;;;;;5029086;28;20670;-84
2021/08/28 01:14:14;;;;;;;5.33;4.93;;;16.90;99.90;;;;;;5017698;28;20711;-81
2021/08/28 01:16:44;;;;;;;4.83;3.97;;;16.70;99.90;;;;;;5026688;28;20667;-85
2021/08/28 01:19:21;;;;;;;4.30;4.00;;;16.70;99.90;;;;;;5028956;28;20607;-82
2021/08/28 01:21:47;;;;;;;4.50;4.10;;;16.70;99.90;;;;;;5023901;28;20675;-85
2021/08/28 01:24:14;;;;;;;4.40;4.10;;;16.70;99.90;;;;;;5013000;28;20710;-82
2021/08/28 01:26:53;;;;;;;4.40;4.10;;;16.70;99.90;;;;;;5028911;28;20294;-82
2021/08/28 01:29:35;;;;;;;4.70;4.20;;;16.70;99.90;;;;;;5007500;28;20694;-82
2021/08/28 01:32:02;;;;;;;4.33;3.93;;;16.70;99.90;;;;;;5027703;28;20647;-82
2021/08/28 01:34:31;;;;;;;4.13;3.83;;;16.70;99.90;;;;;;5027998;28;20742;-82
2021/08/28 01:37:00;;;;;;;5.33;4.23;;;16.70;99.90;;;;;;5028275;28;20630;-82
2021/08/28 01:39:26;;;;;;;4.13;3.83;;;16.70;99.90;;;;;;5008538;28;20613;-83
2021/08/28 01:41:58;;;;;;;4.60;4.27;;;16.70;99.90;;;;;;5023470;28;20632;-84
2021/08/28 01:44:24;;;;;;;4.60;4.20;;;16.60;99.90;;;;;;5027701;28;20658;-83
2021/08/28 01:46:53;;;;;;;4.67;4.20;;;16.60;99.90;;;;;;5027409;28;20631;-83
2021/08/28 01:49:21;;;;;;;5.13;4.60;;;16.60;99.90;;;;;;5025545;28;20659;-85
2021/08/28 01:51:48;;;;;;;4.63;4.33;;;16.60;99.90;;;;;;5028209;28;21182;-83
2021/08/28 01:54:13;;;;;;;4.40;4.03;;;16.60;99.90;;;;;;5009476;28;21151;-82
2021/08/28 01:56:39;;;;;;;4.63;3.93;;;16.60;99.90;;;;;;5008673;28;20635;-85
2021/08/28 01:59:07;;;;;;;4.77;4.37;;;16.60;99.90;;;;;;5023569;28;20208;-85
2021/08/28 02:01:36;;;;;;;4.80;4.20;;;16.60;99.90;;;;;;5023224;28;20243;-85
2021/08/28 02:04:01;;;;;;;4.37;4.07;;;16.60;99.90;;;;;;5023014;28;20651;-84
2021/08/28 02:07:01;;;;;;;4.10;3.80;;;16.60;99.90;;;;;;5024796;28;20683;-84
2021/08/28 02:09:47;;;;;;;4.33;3.90;;;16.60;99.90;;;;;;5024381;28;20217;-83
2021/08/28 02:12:36;;;;;;;4.20;3.90;;;16.50;99.90;;;;;;5020334;28;20634;-82
2021/08/28 02:15:06;;;;;;;3.97;3.67;;;16.50;99.90;;;;;;5022055;28;20658;-83
2021/08/28 02:17:38;;;;;;;3.67;3.40;;;16.50;99.90;;;;;;5020422;28;20687;-85
2021/08/28 02:20:06;;;;;;;2.97;2.77;;;16.50;99.90;;;;;;5010476;28;20654;-87
2021/08/28 02:22:40;;;;;;;3.20;2.90;;;16.50;99.90;;;;;;5022767;28;20641;-84
2021/08/28 02:25:33;;;;;;;3.80;3.30;;;16.50;99.90;;;;;;5008948;28;20647;-86
2021/08/28 02:28:04;;;;;;;3.53;3.23;;;16.50;99.90;;;;;;5023190;28;20677;-86
2021/08/28 02:30:32;;;;;;;3.93;3.53;;;16.50;99.90;;;;;;5024755;28;20661;-83
2021/08/28 02:33:02;;;;;;;4.10;3.70;;;16.60;99.90;;;;;;5024016;28;20715;-81
2021/08/28 02:35:30;;;;;;;4.30;3.90;;;16.40;99.90;;;;;;5025027;28;21019;-84
2021/08/28 02:37:59;;;;;;;4.40;4.00;;;16.40;99.90;;;;;;5026318;28;20625;-83
2021/08/28 02:40:30;;;;;;;3.83;3.53;;;16.40;99.90;;;;;;5022561;28;20647;-82
2021/08/28 02:42:56;;;;;;;4.27;3.87;;;16.40;99.90;;;;;;5025725;28;20665;-82
2021/08/28 02:45:26;;;;;;;3.30;3.10;;;16.40;99.90;;;;;;5025405;28;20701;-83
2021/08/28 02:47:53;;;;;;;3.83;3.63;;;16.40;99.90;;;;;;5026004;28;20664;-84
2021/08/28 02:50:19;;;;;;;4.03;3.73;;;16.40;99.90;;;;;;5031227;28;20769;-83
2021/08/28 02:52:49;;;;;;;3.73;3.43;;;16.30;99.90;;;;;;5025396;28;20711;-83
2021/08/28 02:55:15;;;;;;;4.90;4.10;;;16.30;99.90;;;;;;5026418;28;20690;-82
2021/08/28 02:57:47;;;;;;;3.83;3.50;;;16.30;99.90;;;;;;5026315;28;20623;-84
2021/08/28 03:00:16;;;;;;;4.00;3.70;;;16.30;99.90;;;;;;5024092;28;24217;-84
2021/08/28 03:02:43;;;;;;;3.93;3.63;;;16.30;99.90;;;;;;5027084;28;20612;-84
2021/08/28 03:05:15;;;;;;;3.77;3.47;;;16.30;99.90;;;;;;5027025;28;20698;-82
2021/08/28 03:07:44;;;;;;;3.47;3.27;;;16.30;99.90;;;;;;5019617;28;21379;-83
2021/08/28 03:10:12;;;;;;;4.20;3.90;;;16.30;99.90;;;;;;5026683;28;20677;-82
2021/08/28 03:12:38;;;;;;;4.27;3.87;;;16.30;99.90;;;;;;5026628;28;20623;-83
2021/08/28 03:15:07;;;;;;;3.87;3.57;;;16.30;99.90;;;;;;5026371;28;20670;-85
2021/08/28 03:17:38;;;;;;;4.10;3.80;;;16.30;99.90;;;;;;5026500;28;20623;-83
2021/08/28 03:20:09;;;;;;;4.50;3.20;;;16.30;99.90;;;;;;5003218;28;20667;-82
2021/08/28 03:22:38;;;;;;;4.10;3.40;;;16.30;99.90;;;;;;5020851;28;20662;-84
2021/08/28 03:25:07;;;;;;;3.60;3.40;;;16.20;99.90;;;;;;5007908;28;20655;-84
2021/08/28 03:27:33;;;;;;;4.07;3.77;;;16.20;99.90;;;;;;5027291;28;20642;-82
2021/08/28 03:30:00;;;;;;;3.63;3.40;;;16.20;99.90;;;;;;5009889;28;20664;-84
2021/08/28 03:32:37;;;;;;;4.07;3.33;;;16.20;99.90;;;;;;5027889;28;20627;-84
2021/08/28 03:35:03;;;;;;;3.67;3.47;;;16.20;99.90;;;;;;5028185;28;21275;-82
2021/08/28 03:37:29;;;;;;;3.63;3.40;;;16.30;99.90;;;;;;5025139;28;20635;-82
2021/08/28 03:39:55;;;;;;;3.97;3.67;;;16.20;99.90;;;;;;5025162;28;21594;-83
2021/08/28 03:42:21;;;;;;;4.10;3.80;;;16.40;99.90;;;;;;5027846;28;20217;-84
2021/08/28 03:44:46;;;;;;;3.83;3.63;;;16.20;99.90;;;;;;5022613;28;20575;-85
2021/08/28 03:47:16;;;;;;;4.03;3.73;;;16.20;99.90;;;;;;5026819;28;20177;-83
2021/08/28 03:49:42;;;;;;;3.70;3.50;;;16.20;99.90;;;;;;5023924;28;20213;-83
2021/08/28 03:52:07;;;;;;;4.17;3.87;;;16.20;99.90;;;;;;5021911;28;20655;-84
2021/08/28 03:54:33;;;;;;;3.60;3.30;;;16.20;99.90;;;;;;5016048;28;20651;-85
2021/08/28 03:56:58;;;;;;;3.70;3.43;;;16.20;99.90;;;;;;5018699;28;20193;-83
2021/08/28 03:59:24;;;;;;;4.10;3.70;;;16.20;99.90;;;;;;5022567;28;20181;-86
2021/08/28 04:01:50;;;;;;;3.63;3.33;;;16.20;99.90;;;;;;5026698;28;20193;-85
2021/08/28 04:04:15;;;;;;;3.87;3.57;;;16.20;99.90;;;;;;5019335;28;20866;-83
2021/08/28 04:06:44;;;;;;;3.50;3.20;;;16.10;99.90;;;;;;5018062;28;20236;-85
2021/08/28 04:09:09;;;;;;;3.87;3.57;;;16.50;99.90;;;;;;5021482;28;20557;-84
2021/08/28 04:11:35;;;;;;;5.73;4.30;;;16.20;99.90;;;;;;5019031;28;20850;-83
2021/08/28 04:14:00;;;;;;;4.00;3.70;;;16.20;99.90;;;;;;5025830;28;20292;-85
2021/08/28 04:16:28;;;;;;;4.73;4.37;;;16.20;99.90;;;;;;5018556;28;20737;-85
2021/08/28 04:18:54;;;;;;;4.37;4.07;;;16.20;99.90;;;;;;5021370;28;20607;-84
2021/08/28 04:21:22;;;;;;;4.73;4.33;;;16.20;99.90;;;;;;5019128;28;20710;-85
2021/08/28 04:23:48;;;;;;;5.17;4.33;;;16.30;99.90;;;;;;5003746;28;20193;-82
2021/08/28 04:26:16;;;;;;;3.97;3.67;;;16.30;99.90;;;;;;5008561;28;20718;-83
2021/08/28 04:28:42;;;;;;;3.90;3.60;;;16.30;99.90;;;;;;5026818;28;20747;-83
2021/08/28 04:31:10;;;;;;;3.90;3.60;;;16.30;99.90;;;;;;5030323;28;20723;-84
2021/08/28 04:33:35;;;;;;;3.63;3.33;;;16.20;99.90;;;;;;5011452;28;20209;-83
2021/08/28 04:36:01;;;;;;;3.67;3.37;;;16.30;99.90;;;;;;5016663;28;20639;-84
2021/08/28 04:38:29;;;;;;;3.30;3.10;;;16.30;99.90;;;;;;5007238;28;20806;-84
2021/08/28 04:40:57;;;;;;;3.00;2.80;;;16.50;99.90;;;;;;5027640;28;20240;-85
2021/08/28 04:43:23;;;;;;;3.13;2.90;;;16.30;99.90;;;;;;5024102;28;20734;-85
2021/08/28 04:46:05;;;;;;;3.43;3.13;;;16.30;99.90;;;;;;5024378;28;21089;-83
2021/08/28 04:48:34;;;;;;;3.50;3.20;;;16.20;99.90;;;;;;5028996;28;20223;-85
2021/08/28 04:51:03;;;;;;;3.23;3.03;;;16.20;99.90;;;;;;5028830;28;20734;-84
2021/08/28 04:53:28;;;;;;;3.07;2.87;;;16.20;99.90;;;;;;5017779;28;21347;-82
2021/08/28 04:55:54;;;;;;;4.23;2.90;;;16.20;99.90;;;;;;5018324;28;20652;-85
2021/08/28 04:58:19;;;;;;;3.60;3.30;;;16.20;99.90;;;;;;5031229;28;20309;-84
2021/08/28 05:00:45;;;;;;;3.30;3.03;;;16.60;99.90;;;;;;5015263;28;20652;-83
2021/08/28 05:03:10;;;;;;;3.83;3.60;;;16.30;99.90;;;;;;5030477;28;20196;-83
2021/08/28 05:05:38;;;;;;;3.90;3.60;;;16.20;99.90;;;;;;5027591;28;20239;-84
2021/08/28 05:08:04;;;;;;;4.30;4.00;;;16.20;99.90;;;;;;5030083;28;20255;-83
2021/08/28 05:10:31;;;;;;;4.30;3.70;;;16.30;99.90;;;;;;5032007;28;20640;-82
2021/08/28 05:12:57;;;;;;;4.23;3.83;;;16.30;99.90;;;;;;5031620;28;20252;-82
2021/08/28 05:15:27;;;;;;;4.90;4.50;;;16.20;99.90;;;;;;5033089;28;20676;-83
2021/08/28 05:17:55;;;;;;;5.47;5.03;;;16.20;99.90;;;;;;5022715;28;20238;-82
2021/08/28 05:20:21;;;;;;;7.33;5.13;;;16.20;99.90;;;;;;5027626;28;20654;-84
2021/08/28 05:22:46;;;;;;;5.17;4.77;;;16.30;99.90;;;;;;5009988;28;20637;-82
2021/08/28 05:25:14;;;;;;;6.00;5.40;;;16.50;99.90;;;;;;5032181;28;20354;-83
2021/08/28 05:27:40;;;;;;;6.23;5.70;;;16.30;99.90;;;;;;5029820;28;20288;-85
2021/08/28 05:30:06;;;;;;;6.60;6.00;;;16.30;99.90;;;;;;5024223;28;20698;-86
2021/08/28 05:32:34;;;;;;;7.77;7.07;;;16.30;99.90;;;;;;5029094;28;20214;-83
2021/08/28 05:35:05;;;;;;;7.23;6.60;;;16.30;99.90;;;;;;5030819;28;20240;-83
2021/08/28 05:37:31;;;;;;;8.23;6.90;;;16.30;99.90;;;;;;5026279;28;20727;-85
2021/08/28 05:39:59;;;;;;;8.10;7.30;;;16.30;99.90;;;;;;5030200;28;20851;-83
2021/08/28 05:42:27;;;;;;;9.77;8.83;;;16.30;99.90;;;;;;5030616;28;20196;-83
2021/08/28 05:44:55;;;;;;;8.83;7.97;;;16.30;99.90;;;;;;5029632;28;20647;-83
2021/08/28 05:47:28;;;;;;;9.03;8.23;;;16.30;99.90;;;;;;5016311;28;21236;-83
2021/08/28 05:49:55;;;;;;;10.47;9.47;;;16.30;99.90;;;;;;5029004;28;20631;-83
2021/08/28 05:52:21;;;;;;;10.37;9.30;;;16.30;99.90;;;;;;5034688;28;20622;-85
2021/08/28 05:54:46;;;;;;;10.90;9.30;;;16.30;99.90;;;;;;5018270;28;20635;-82
2021/08/28 05:57:14;;;;;;;11.30;10.20;;;16.30;99.90;;;;;;5034973;28;20193;-83
2021/08/28 05:59:40;;;;;;;13.20;11.80;;;16.40;99.90;;;;;;5024293;28;20295;-84
2021/08/28 06:02:06;;;;;;;12.37;11.07;;;16.40;99.90;;;;;;5018497;28;20666;-83
2021/08/28 06:04:32;;;;;;;13.90;12.20;;;16.40;99.90;;;;;;5022642;28;20189;-84
2021/08/28 06:06:57;;;;;;;11.60;10.50;;;16.40;99.90;;;;;;5022620;28;20643;-84
2021/08/28 06:09:25;;;;;;;13.33;11.77;;;16.50;99.90;;;;;;5023094;28;20186;-84
2021/08/28 06:11:51;;;;;;;13.07;11.40;;;16.50;99.90;;;;;;5030120;28;20193;-82
2021/08/28 06:14:16;;;;;;;11.60;10.50;;;16.50;99.90;;;;;;5033647;28;20651;-83
2021/08/28 06:16:42;;;;;;;12.20;11.00;;;16.50;99.90;;;;;;5027724;28;20221;-82
2021/08/28 06:19:07;;;;;;;12.50;11.40;;;16.50;99.90;;;;;;5032764;28;20656;-83
2021/08/28 06:21:33;;;;;;;11.73;10.53;;;16.60;99.90;;;;;;5032210;28;20200;-83
2021/08/28 06:24:00;;;;;;;11.60;10.50;;;16.60;99.90;;;;;;5030982;28;20197;-83
2021/08/28 06:26:26;;;;;;;10.73;9.73;;;16.60;99.90;;;;;;5030873;28;20659;-84
2021/08/28 06:28:51;;;;;;;11.73;9.90;;;16.70;99.90;;;;;;5027097;28;20642;-83
2021/08/28 06:31:17;;;;;;;10.30;9.30;;;16.70;99.90;;;;;;5033603;28;20211;-83
2021/08/28 06:33:42;;;;;;;10.97;9.90;;;16.80;99.90;;;;;;5023994;28;20204;-85
2021/08/28 06:36:08;;;;;;;10.73;9.73;;;16.80;99.90;;;;;;5016880;28;20222;-85
2021/08/28 06:38:33;;;;;;;9.90;9.00;;;16.80;99.90;;;;;;5008139;28;21216;-82
2021/08/28 06:41:02;;;;;;;9.70;8.60;;;16.80;99.90;;;;;;5023591;28;20236;-83
2021/08/28 06:43:29;;;;;;;10.30;9.30;;;16.90;99.90;;;;;;5023343;28;20204;-86
2021/08/28 06:45:54;;;;;;;10.17;9.27;;;16.90;99.90;;;;;;5011425;28;20636;-85
2021/08/28 06:48:20;;;;;;;10.40;9.40;;;17.00;99.90;;;;;;5028375;28;20683;-83
2021/08/28 06:50:47;;;;;;;9.90;8.90;;;17.00;99.90;;;;;;5010821;28;20665;-83
2021/08/28 06:53:13;;;;;;;11.20;10.17;;;17.00;99.90;;;;;;5023483;28;20622;-84
2021/08/28 06:55:38;;;;;;;9.50;8.60;;;17.30;99.90;;;;;;5025926;28;20639;-83
2021/08/28 06:58:04;;;;;;;9.40;8.50;;;17.40;99.90;;;;;;5023949;28;20759;-85
2021/08/28 07:00:32;;;;;;;9.57;8.57;;;17.20;99.90;;;;;;5002624;28;20213;-83
2021/08/28 07:02:59;;;;;;;10.00;8.90;;;17.10;99.90;;;;;;5023066;28;20201;-83
2021/08/28 07:05:25;;;;;;;9.37;8.43;;;17.40;99.90;;;;;;5023149;28;20627;-83
2021/08/28 07:07:51;;;;;;;9.10;8.20;;;17.10;99.90;;;;;;5022686;28;20625;-84
2021/08/28 07:10:17;;;;;;;8.47;7.70;;;17.10;99.90;;;;;;5019768;28;20686;-83
2021/08/28 07:12:43;;;;;;;9.23;8.33;;;17.10;99.90;;;;;;5024887;28;21275;-83
2021/08/28 07:15:10;;;;;;;8.30;7.43;;;17.20;99.90;;;;;;5020139;28;20750;-83
2021/08/28 07:17:35;;;;;;;9.60;8.70;;;17.20;99.90;;;;;;5027856;28;20197;-83
2021/08/28 07:20:05;;;;;;;7.87;7.10;;;17.20;99.90;;;;;;5020949;28;21363;-77
2021/08/28 07:22:33;;;;;;;8.27;7.30;;;17.20;99.90;;;;;;5017515;28;20677;-83
2021/08/28 07:24:59;;;;;;;7.70;7.00;;;17.20;99.90;;;;;;5025841;28;20738;-83
2021/08/28 07:27:25;;;;;;;7.90;6.87;;;17.20;99.90;;;;;;5022573;28;20640;-84
2021/08/28 07:29:51;;;;;;;9.33;7.70;;;17.30;99.90;;;;;;5024516;28;20693;-83
2021/08/28 07:32:16;;;;;;;8.53;7.73;;;17.30;99.90;;;;;;5025122;28;20573;-77
2021/08/28 07:34:42;;;;;;;8.73;7.53;;;17.30;99.90;;;;;;5019035;28;20228;-76
2021/08/28 07:37:08;;;;;;;8.80;7.83;;;17.30;99.90;;;;;;5022424;28;20985;-82
2021/08/28 07:39:34;;;;;;;7.33;6.63;;;17.30;99.90;;;;;;5028245;28;20228;-82
2021/08/28 07:42:00;;;;;;;8.90;7.87;;;17.40;99.90;;;;;;5013541;28;20215;-84
2021/08/28 07:44:25;;;;;;;7.60;7.00;;;17.40;99.90;;;;;;5025198;28;20640;-83
2021/08/28 07:46:53;;;;;;;8.03;7.17;;;17.50;99.90;;;;;;5027739;28;20192;-85
2021/08/28 07:49:19;;;;;;;7.73;6.67;;;17.50;99.90;;;;;;5004144;28;20224;-84
2021/08/28 07:51:44;;;;;;;6.40;5.87;;;17.60;99.90;;;;;;5020062;28;20632;-86
2021/08/28 07:54:10;;;;;;;6.70;6.00;;;17.60;99.90;;;;;;5021431;28;20671;-86
2021/08/28 07:56:35;;;;;;;7.47;6.43;;;17.60;99.90;;;;;;5004981;28;20213;-85
2021/08/28 07:59:01;;;;;;;6.93;6.23;;;17.60;99.90;;;;;;5026289;28;20189;-85
2021/08/28 08:01:26;;;;;;;7.03;6.40;;;17.70;99.90;;;;;;5012003;28;20244;-84
2021/08/28 08:03:52;;;;;;;6.50;5.90;;;17.70;99.90;;;;;;5029789;28;20256;-85
2021/08/28 08:06:18;;;;;;;6.90;6.20;;;17.70;99.90;;;;;;5022961;28;20457;-86
2021/08/28 08:08:45;;;;;;;7.90;5.93;;;17.70;99.90;;;;;;5007161;28;20216;-86
2021/08/28 08:11:15;;;;;;;6.50;5.80;;;18.00;99.90;;;;;;5028711;28;20217;-85
2021/08/28 08:13:41;;;;;;;6.73;5.47;;;18.00;99.90;;;;;;5027785;28;20640;-85
2021/08/28 08:16:06;;;;;;;5.57;5.17;;;17.80;99.90;;;;;;5018340;28;20678;-85
2021/08/28 08:18:32;;;;;;;7.07;6.00;;;17.80;99.90;;;;;;5031668;28;20197;-86
2021/08/28 08:20:57;;;;;;;6.73;6.13;;;17.80;99.90;;;;;;5030468;28;20689;-88
2021/08/28 08:23:23;;;;;;;6.47;5.47;;;17.90;99.90;;;;;;5013759;28;20208;-86
2021/08/28 08:25:48;;;;;;;6.60;5.97;;;18.10;99.90;;;;;;5031944;28;20253;-86
2021/08/28 08:28:16;;;;;;;6.40;5.20;;;17.90;99.90;;;;;;5028883;28;20863;-77
2021/08/28 08:30:42;;;;;;;5.37;4.80;;;17.90;99.90;;;;;;5017620;28;20212;-77
2021/08/28 08:33:07;;;;;;;5.60;5.10;;;17.90;99.90;;;;;;5022877;28;21037;-82
2021/08/28 08:35:33;;;;;;;5.40;4.90;;;18.00;99.90;;;;;;5014501;28;20224;-82
2021/08/28 08:38:00;;;;;;;5.17;4.70;;;18.00;99.90;;;;;;5031010;28;20282;-82
2021/08/28 08:40:26;;;;;;;4.63;4.23;;;18.00;99.90;;;;;;5030793;28;20263;-81
2021/08/28 08:42:55;;;;;;;4.33;3.93;;;18.00;99.90;;;;;;5034064;28;21223;-82
2021/08/28 08:45:25;;;;;;;3.83;3.43;;;18.00;99.90;;;;;;5023813;28;20639;-82
2021/08/28 08:47:52;;;;;;;3.40;3.20;;;18.00;99.90;;;;;;5030883;28;21333;-82
2021/08/28 08:50:18;;;;;;;4.70;4.30;;;18.00;99.90;;;;;;5024542;28;20655;-82
2021/08/28 08:52:48;;;;;;;3.97;3.60;;;18.00;99.90;;;;;;5019656;28;20634;-77
2021/08/28 08:55:14;;;;;;;3.70;3.40;;;18.00;99.90;;;;;;5012122;28;20742;-77
2021/08/28 08:57:40;;;;;;;3.30;3.07;;;18.00;99.90;;;;;;5015848;28;20634;-77
2021/08/28 09:00:07;;;;;;;3.17;2.97;;;18.00;99.90;;;;;;5016943;28;21231;-81
2021/08/28 09:02:33;;;;;;;3.77;3.43;;;17.90;99.90;;;;;;5012699;28;20648;-82
2021/08/28 09:04:58;;;;;;;4.07;3.43;;;17.90;99.90;;;;;;5026465;28;20678;-82
2021/08/28 09:07:24;;;;;;;3.20;3.00;;;17.90;99.90;;;;;;5012559;28;20631;-82
2021/08/28 09:09:49;;;;;;;2.83;2.63;;;18.00;99.90;;;;;;5029358;28;20209;-83
2021/08/28 09:12:15;;;;;;;3.30;3.10;;;17.90;99.90;;;;;;5026947;28;20198;-82
2021/08/28 09:14:41;;;;;;;3.07;2.87;;;17.90;99.90;;;;;;5020276;28;20256;-76
2021/08/28 09:17:18;;;;;;;3.53;3.22;;;17.90;99.90;;;;;;5019269;28;24438;-77
2021/08/28 09:19:46;;;;;;;3.50;3.20;;;18.00;99.90;;;;;;5003400;28;20208;-78
2021/08/28 09:22:23;;;;;;;3.00;2.80;;;18.00;99.90;;;;;;5008800;28;20627;-76
2021/08/28 09:24:50;;;;;;;3.10;2.90;;;18.00;99.90;;;;;;5016882;28;20658;-82
2021/08/28 09:27:31;;;;;;;2.83;2.63;;;18.00;99.90;;;;;;5019975;28;21190;-82
2021/08/28 09:29:56;;;;;;;2.70;2.50;;;18.00;99.90;;;;;;5033979;28;20686;-80
2021/08/28 09:32:22;;;;;;;3.00;2.80;;;18.00;99.90;;;;;;5028413;28;20698;-80
2021/08/28 09:34:50;;;;;;;2.90;2.70;;;18.30;99.90;;;;;;5030597;28;20279;-81
2021/08/28 09:37:16;;;;;;;2.43;2.27;;;18.10;99.90;;;;;;5032657;28;20832;-81
2021/08/28 09:39:47;;;;;;;2.40;2.20;;;18.20;99.90;;;;;;5037752;28;20670;-82
2021/08/28 09:42:22;;;;;;;2.60;2.40;;;18.20;99.90;;;;;;5032511;28;20231;-81
2021/08/28 09:44:49;;;;;;;2.60;2.40;;;18.20;99.90;;;;;;5024623;28;20648;-82
2021/08/28 09:47:29;;;;;;;2.30;2.13;;;18.20;99.90;;;;;;5021229;28;21205;-77
2021/08/28 09:49:54;;;;;;;3.67;2.37;;;18.10;99.90;;;;;;5005921;28;20705;-77
2021/08/28 09:52:23;;;;;;;3.50;2.40;;;18.10;99.90;;;;;;5019445;28;20647;-79
2021/08/28 09:54:48;;;;;;;2.83;2.63;;;18.20;99.90;;;;;;5020853;28;20243;-79
2021/08/28 09:57:15;;;;;;;2.43;2.30;;;18.30;99.90;;;;;;5006452;28;20623;-78
2021/08/28 09:59:44;;;;;;;2.40;2.30;;;18.40;99.90;;;;;;5024024;28;20667;-80
2021/08/28 10:02:17;;;;;;;2.63;2.40;;;18.60;99.90;;;;;;5025680;28;20727;-80
2021/08/28 10:04:55;;;;;;;2.57;2.47;;;18.60;99.90;;;;;;5032743;28;20674;-79
2021/08/28 10:07:26;;;;;;;2.60;2.40;;;18.70;99.90;;;;;;5027899;28;20638;-77
2021/08/28 10:10:04;;;;;;;3.00;2.80;;;18.80;99.90;;;;;;5014661;28;20697;-78
2021/08/28 10:12:33;;;;;;;2.60;2.40;;;18.70;99.90;;;;;;5016141;28;20809;-77
2021/08/28 10:15:00;;;;;;;2.33;2.20;;;18.70;99.90;;;;;;5027800;28;20654;-81
2021/08/28 10:17:27;;;;;;;2.60;2.40;;;18.70;99.90;;;;;;5018215;28;20642;-80
2021/08/28 10:19:55;;;;;;;4.90;2.90;;;18.60;99.90;;;;;;5030155;28;20654;-80
2021/08/28 10:22:28;;;;;;;2.90;2.60;;;18.80;99.90;;;;;;5032127;28;20627;-80
2021/08/28 10:24:57;;;;;;;2.70;2.50;;;18.50;99.90;;;;;;5033907;28;20752;-81
2021/08/28 10:27:24;;;;;;;2.77;2.57;;;18.50;99.90;;;;;;5035264;28;20661;-81
2021/08/28 10:29:51;;;;;;;3.30;3.10;;;18.50;99.90;;;;;;5038063;28;20642;-81
2021/08/28 10:32:20;;;;;;;2.87;2.67;;;18.40;99.90;;;;;;5038403;28;20634;-80
2021/08/28 10:34:48;;;;;;;3.03;2.83;;;18.40;99.90;;;;;;5035517;28;20635;-80
2021/08/28 10:37:21;;;;;;;3.00;2.70;;;18.60;99.90;;;;;;5031889;28;20631;-78
2021/08/28 10:39:49;;;;;;;2.87;2.67;;;18.60;99.90;;;;;;5029729;28;20702;-79
2021/08/28 10:42:15;;;;;;;3.73;2.43;;;18.70;99.90;;;;;;5028309;28;20632;-80
2021/08/28 10:44:41;;;;;;;2.80;2.60;;;18.80;99.90;;;;;;5023681;28;20649;-80
2021/08/28 10:47:27;;;;;;;2.83;2.40;;;18.90;99.90;;;;;;5030217;28;20721;-80
2021/08/28 10:49:53;;;;;;;2.40;2.20;;;19.00;99.90;;;;;;5028542;28;20298;-80
2021/08/28 10:52:23;;;;;;;2.70;2.10;;;19.00;99.90;;;;;;5018061;28;20635;-80
2021/08/28 10:54:57;;;;;;;2.13;2.03;;;18.90;99.90;;;;;;5028644;28;20649;-80
2021/08/28 10:57:28;;;;;;;2.60;2.27;;;19.20;99.90;;;;;;5029021;28;21260;-79
2021/08/28 11:00:17;;;;;;;2.37;2.17;;;19.00;99.90;;;;;;5023941;28;20670;-80
2021/08/28 11:02:53;;;;;;;1.90;1.80;;;19.00;99.90;;;;;;5029617;28;20707;-80
2021/08/28 11:05:29;;;;;;;2.80;2.20;;;18.90;99.90;;;;;;5022729;28;20651;-80
2021/08/28 11:07:56;;;;;;;2.63;2.30;;;19.00;99.90;;;;;;5029570;28;20688;-80
2021/08/28 11:10:26;;;;;;;1.80;1.70;;;19.00;99.90;;;;;;5023635;28;20654;-79
2021/08/28 11:13:01;;;;;;;1.73;1.63;;;19.30;99.90;;;;;;5030850;28;20674;-79
2021/08/28 11:15:30;;;;;;;2.00;1.80;;;19.20;99.90;;;;;;5030639;28;23366;-79
2021/08/28 11:18:35;;;;;;;1.87;1.77;;;19.10;99.90;;;;;;5036703;28;20624;-79
2021/08/28 11:21:08;;;;;;;1.70;1.60;;;19.10;99.90;;;;;;5029996;28;20680;-80
2021/08/28 11:23:39;;;;;;;2.07;1.87;;;19.30;99.90;;;;;;5016776;28;20730;-79
2021/08/28 11:26:07;;;;;;;2.53;1.77;;;19.10;99.90;;;;;;5024021;28;20635;-74
2021/08/28 11:28:41;;;;;;;3.60;1.83;;;19.00;99.90;;;;;;5014759;28;21170;-75
2021/08/28 11:31:10;;;;;;;1.90;1.80;;;19.00;99.90;;;;;;5018080;28;20733;-75
2021/08/28 11:33:37;;;;;;;2.10;2.00;;;19.00;99.90;;;;;;5016481;28;20644;-75
2021/08/28 11:36:06;;;;;;;2.00;1.90;;;19.00;99.90;;;;;;5017151;28;21074;-74
2021/08/28 11:38:45;;;;;;;1.93;1.83;;;18.90;99.90;;;;;;5019377;28;20743;-74
2021/08/28 11:41:12;;;;;;;2.67;2.00;;;18.90;99.90;;;;;;5016637;28;20655;-74
2021/08/28 11:43:40;;;;;;;1.80;1.70;;;18.90;99.90;;;;;;5014720;28;21010;-75
2021/08/28 11:46:14;;;;;;;1.70;1.60;;;18.90;99.90;;;;;;5011589;28;20639;-74
2021/08/28 11:48:43;;;;;;;2.07;1.87;;;18.80;99.90;;;;;;4998187;28;20670;-74
2021/08/28 11:51:13;;;;;;;2.23;2.00;;;18.70;99.90;;;;;;5026347;28;20796;-79
2021/08/28 11:53:41;;;;;;;2.00;1.90;;;18.80;99.90;;;;;;5011917;28;20691;-80
2021/08/28 11:56:14;;;;;;;2.53;2.07;;;18.60;99.90;;;;;;5011470;28;20637;-80
2021/08/28 11:59:03;;;;;;;2.90;1.90;;;18.60;99.90;;;;;;5026429;28;20632;-79
2021/08/28 12:01:30;;;;;;;6.10;2.50;;;18.60;99.90;;;;;;5023691;28;20717;-80
2021/08/28 12:03:58;;;;;;;2.83;2.10;;;18.50;99.90;;;;;;5022232;28;21233;-80
2021/08/28 12:06:34;;;;;;;2.00;1.90;;;18.50;99.90;;;;;;5030063;28;20639;-81
2021/08/28 12:09:03;;;;;;;1.80;1.70;;;18.50;99.90;;;;;;5030631;28;20637;-81
2021/08/28 12:11:32;;;;;;;1.63;1.53;;;18.50;99.90;;;;;;5030741;28;21254;-80
2021/08/28 12:13:59;;;;;;;1.50;1.40;;;18.50;99.90;;;;;;5029137;28;20732;-80
2021/08/28 12:16:34;;;;;;;1.70;1.60;;;18.50;99.90;;;;;;5028987;28;20703;-81
2021/08/28 12:19:05;;;;;;;1.60;1.50;;;18.40;99.90;;;;;;5029280;28;20616;-80
2021/08/28 12:21:39;;;;;;;1.77;1.63;;;18.30;99.90;;;;;;5029117;28;20639;-79
2021/08/28 12:24:17;;;;;;;1.50;1.40;;;18.30;99.90;;;;;;5030715;28;20699;-79
2021/08/28 12:26:48;;;;;;;1.30;1.30;;;18.30;99.90;;;;;;5028110;28;20643;-81
2021/08/28 12:29:20;;;;;;;1.30;1.27;;;18.30;99.90;;;;;;5025668;28;20681;-76
2021/08/28 12:31:53;;;;;;;3.73;1.80;;;18.60;99.90;;;;;;5012975;28;20611;-76
2021/08/28 12:34:20;;;;;;;1.40;1.30;;;18.40;99.90;;;;;;5018118;28;21275;-77
2021/08/28 12:36:49;;;;;;;1.53;1.43;;;18.40;99.90;;;;;;5013210;28;21190;-76
2021/08/28 12:39:17;;;;;;;1.27;1.20;;;18.50;99.90;;;;;;5016990;28;20620;-76
2021/08/28 12:41:43;;;;;;;1.50;1.40;;;18.60;99.90;;;;;;5014438;28;20644;-76
2021/08/28 12:44:11;;;;;;;2.90;1.20;;;18.70;99.90;;;;;;5014554;28;20639;-78
2021/08/28 12:46:39;;;;;;;2.03;1.50;;;18.90;99.90;;;;;;5015821;28;20655;-78
2021/08/28 12:49:11;;;;;;;1.23;1.10;;;18.70;99.90;;;;;;5017543;28;21172;-78
2021/08/28 12:51:50;;;;;;;1.20;1.10;;;18.70;99.90;;;;;;5012982;28;20659;-77
2021/08/28 12:54:25;;;;;;;3.53;1.33;;;18.70;99.90;;;;;;4995223;28;20636;-78